This is the latest recevied weather packets stored in our database for station/object OH2NJR. If no packets are shown the sender has not sent any weather packets the latest 1 day(s).
| Time | Temp. | Humidity | Pressure | Rain* | Wind** | Luminosity | Snow |
|---|---|---|---|---|---|---|---|
| 1778076920 | 8.89° C | 47% | 1013.9 hPa | 0 mm | - | - | - |
| 1778068543 | 6.67° C | 69% | 1013.8 hPa | 0 mm | - | - | - |
| 1778065320 | 7.22° C | 64% | 1013.7 hPa | 0 mm | - | - | - |
| 1778064364 | 7.78° C | - | - | 0 mm | - | - | - |
| 1778062043 | 10.56° C | 47% | 1013.6 hPa | 0 mm | - | - | - |
| 1778060871 | - | - | - | - | - | - | - |
| 1778055458 | 8.33° C | 44% | 1012.9 hPa | 0 mm | - | - | - |
| 1778051070 | 7.78° C | 49% | 1012.5 hPa | 0 mm | - | - | - |
| 1778047948 | 6.67° C | 58% | 1012.3 hPa | 0 mm | - | - | - |
| 1778046979 | 6.11° C | 63% | 1012.2 hPa | 0 mm | - | - | - |
| 1778043758 | 4.44° C | 69% | 1011.6 hPa | 0 mm | - | - | - |
| 1778041608 | 2.78° C | 77% | 1011 hPa | 0 mm | - | - | - |
| 1778039318 | 2.22° C | 78% | 1010.8 hPa | 0 mm | - | - | - |
| 1778037038 | 2.22° C | 78% | 1010.6 hPa | 0 mm | - | - | - |
| 1778035948 | 2.22° C | 78% | 1010.4 hPa | 0 mm | - | - | - |
| 1778033818 | 1.67° C | 78% | 1010.1 hPa | 0 mm | - | - | - |
| 1778032678 | 1.67° C | 77% | 1010.1 hPa | 0 mm | - | - | - |
| 1778031693 | 1.67° C | 78% | 1010 hPa | 0 mm | - | - | - |
| 1778030633 | 2.22° C | 77% | 1010 hPa | 0 mm | - | - | - |
| 1778029457 | 2.22° C | 76% | 1009.9 hPa | 0 mm | - | - | - |
| 1778028358 | 2.78° C | 75% | 1009.3 hPa | 0 mm | - | - | - |
| 1778027322 | 2.78° C | 73% | 1009.2 hPa | 0 mm | - | - | - |
| 1778026289 | 3.33° C | 74% | 1009.1 hPa | 0 mm | - | - | - |
| 1778026283 | 3.33° C | 74% | 1009.1 hPa | 0 mm | - | - | - |
| 1778023178 | 3.89° C | 72% | 1008.8 hPa | 0 mm | - | - | - |
* Rain latest hour (hover to see other rain measurements)
** Current wind speed in m/s (hover to see current wind gust speed)